Time;durP1;ratioP1;P1;durP2;ratioP2;P2;SDS_P1;SDS_P2;PMS_P1;PMS_P2;Temp;Humidity;BMP_temperature;BMP_pressure;BME280_temperature;BME280_humidity;BME280_pressure;Samples;Min_cycle;Max_cycle;Signal;HPM_P1;HPM_P2
2021/03/11 00:01:11;;;;;;;34.00;16.43;;;9.80;82.40;;;;;;8392519;28;20211;-72
2021/03/11 00:05:14;;;;;;;31.87;17.37;;;9.90;82.70;;;;;;8397363;28;20475;-72
2021/03/11 00:09:14;;;;;;;29.17;16.70;;;9.90;82.60;;;;;;8364835;28;20468;-71
2021/03/11 00:13:15;;;;;;;30.03;17.00;;;9.90;81.10;;;;;;8368054;28;20510;-72
2021/03/11 00:17:16;;;;;;;32.03;15.80;;;10.00;81.70;;;;;;8360720;28;20201;-72
2021/03/11 00:21:17;;;;;;;30.50;15.20;;;10.00;80.80;;;;;;8367040;28;20474;-73
2021/03/11 00:25:23;;;;;;;26.30;14.43;;;10.00;81.30;;;;;;8366320;28;20228;-73
2021/03/11 00:29:30;;;;;;;25.27;15.30;;;10.00;80.70;;;;;;8386591;28;20227;-73
2021/03/11 00:33:34;;;;;;;28.80;15.53;;;10.10;80.40;;;;;;8386403;28;21029;-73
2021/03/11 00:37:41;;;;;;;30.27;15.60;;;10.20;79.60;;;;;;8366078;28;20444;-73
2021/03/11 00:41:45;;;;;;;26.90;14.37;;;10.20;80.20;;;;;;8382469;28;20459;-73
2021/03/11 00:45:49;;;;;;;30.50;14.40;;;10.20;79.60;;;;;;8391175;28;20482;-72
2021/03/11 00:49:50;;;;;;;27.70;15.00;;;10.30;79.70;;;;;;8379176;28;20456;-72
2021/03/11 00:53:51;;;;;;;25.40;15.40;;;10.30;79.40;;;;;;8376642;28;20231;-73
2021/03/11 00:57:51;;;;;;;29.50;15.47;;;10.30;78.80;;;;;;8372273;28;20185;-73
2021/03/11 01:01:52;;;;;;;27.37;14.40;;;10.40;79.30;;;;;;8360153;28;20218;-74
2021/03/11 01:06:02;;;;;;;25.53;15.40;;;10.40;78.70;;;;;;8403153;28;20646;-73
2021/03/11 01:10:08;;;;;;;24.80;13.87;;;10.40;78.90;;;;;;8387837;28;20468;-73
2021/03/11 01:14:08;;;;;;;17.73;11.47;;;10.40;78.90;;;;;;8376294;28;20440;-73
2021/03/11 01:18:13;;;;;;;26.17;11.60;;;10.50;78.70;;;;;;8391624;28;20442;-73
2021/03/11 01:22:18;;;;;;;20.80;11.50;;;10.50;79.50;;;;;;8393164;28;20468;-73
2021/03/11 01:26:18;;;;;;;20.07;10.03;;;10.50;79.50;;;;;;8373110;28;20454;-72
2021/03/11 01:30:27;;;;;;;19.20;11.03;;;10.50;79.60;;;;;;8388125;28;20203;-73
2021/03/11 01:34:30;;;;;;;16.70;11.10;;;10.50;79.90;;;;;;8370948;28;20442;-73
2021/03/11 01:38:31;;;;;;;14.77;9.57;;;10.50;80.10;;;;;;8360189;28;21052;-73
2021/03/11 01:42:32;;;;;;;13.30;8.80;;;10.40;80.60;;;;;;8359448;28;21094;-72
2021/03/11 01:46:33;;;;;;;16.03;8.93;;;10.40;80.90;;;;;;8374297;28;20277;-72
2021/03/11 01:50:36;;;;;;;14.07;8.70;;;10.40;81.10;;;;;;8373207;28;20455;-74
2021/03/11 01:54:39;;;;;;;10.33;6.27;;;10.40;81.40;;;;;;8371686;28;20220;-72
2021/03/11 01:58:40;;;;;;;12.53;7.53;;;10.40;81.30;;;;;;8369224;28;20440;-73
2021/03/11 02:02:45;;;;;;;12.60;7.63;;;10.40;82.00;;;;;;8346419;28;20465;-72
2021/03/11 02:06:51;;;;;;;8.70;6.10;;;10.40;82.20;;;;;;8377937;28;20808;-73
2021/03/11 02:10:52;;;;;;;8.40;5.13;;;10.40;82.00;;;;;;8376608;28;20468;-73
2021/03/11 02:15:04;;;;;;;8.93;5.77;;;10.40;81.90;;;;;;8364729;28;20494;-71
2021/03/11 02:19:39;;;;;;;9.40;6.40;;;10.40;81.70;;;;;;8410472;28;20197;-73
2021/03/11 02:24:05;;;;;;;8.53;5.60;;;10.50;81.90;;;;;;8389913;28;21006;-72
2021/03/11 02:28:21;;;;;;;8.63;5.40;;;10.50;82.20;;;;;;8376621;28;20437;-72
2021/03/11 02:32:28;;;;;;;10.63;7.07;;;10.50;82.30;;;;;;8377634;28;21015;-72
2021/03/11 02:36:29;;;;;;;7.97;5.50;;;10.50;82.10;;;;;;8383300;28;20520;-73
2021/03/11 02:40:33;;;;;;;10.60;6.60;;;10.50;82.10;;;;;;8384594;28;20470;-72
2021/03/11 02:44:39;;;;;;;12.00;7.10;;;10.50;82.30;;;;;;8389535;28;20987;-72
2021/03/11 02:48:41;;;;;;;11.73;7.60;;;10.50;82.70;;;;;;8364977;28;20447;-72
2021/03/11 02:52:43;;;;;;;15.50;7.37;;;10.50;82.90;;;;;;8363625;28;20474;-72
2021/03/11 02:56:46;;;;;;;9.30;6.53;;;10.50;82.70;;;;;;8346778;28;20546;-71
2021/03/11 03:00:51;;;;;;;12.33;7.33;;;10.40;82.80;;;;;;8392706;28;20511;-73
2021/03/11 03:04:59;;;;;;;7.90;5.80;;;10.30;83.10;;;;;;8385204;28;20803;-73
2021/03/11 03:09:00;;;;;;;10.90;8.40;;;10.30;83.40;;;;;;8376624;28;20793;-73
2021/03/11 03:13:14;;;;;;;7.67;6.00;;;10.40;83.70;;;;;;8388279;28;20550;-72
2021/03/11 03:17:18;;;;;;;11.30;6.97;;;10.40;83.80;;;;;;8367372;28;20998;-73
2021/03/11 03:21:23;;;;;;;8.93;7.17;;;10.40;84.00;;;;;;8366880;28;20474;-72
2021/03/11 03:25:26;;;;;;;11.03;6.30;;;10.40;84.00;;;;;;8379964;28;20455;-71
2021/03/11 03:29:26;;;;;;;9.83;5.60;;;10.40;83.90;;;;;;8373037;28;20436;-72
2021/03/11 03:33:31;;;;;;;12.33;5.40;;;10.30;84.00;;;;;;8360444;28;20454;-73
2021/03/11 03:37:36;;;;;;;6.27;4.03;;;10.30;84.30;;;;;;8382591;28;20448;-72
2021/03/11 03:41:40;;;;;;;6.43;5.00;;;10.30;84.50;;;;;;8366609;28;20466;-72
2021/03/11 03:46:10;;;;;;;8.33;6.10;;;10.30;84.70;;;;;;8383089;28;20440;-72
2021/03/11 03:50:19;;;;;;;4.63;4.20;;;10.30;85.00;;;;;;8387929;28;20451;-72
2021/03/11 03:54:30;;;;;;;6.20;4.63;;;10.30;85.00;;;;;;8384739;28;20444;-72
2021/03/11 03:58:31;;;;;;;5.23;3.70;;;10.40;85.20;;;;;;8367503;28;20448;-72
2021/03/11 04:02:36;;;;;;;4.07;3.67;;;10.40;85.00;;;;;;8373065;28;20468;-72
2021/03/11 04:06:39;;;;;;;6.10;3.77;;;10.50;85.00;;;;;;8370569;28;20431;-72
2021/03/11 04:10:45;;;;;;;4.83;4.40;;;10.50;85.00;;;;;;8384672;28;20518;-72
2021/03/11 04:14:47;;;;;;;5.63;5.03;;;10.50;85.20;;;;;;8366669;28;20458;-72
2021/03/11 04:18:52;;;;;;;6.20;3.90;;;10.40;85.30;;;;;;8387144;28;20443;-73
2021/03/11 04:22:55;;;;;;;6.13;3.63;;;10.40;85.70;;;;;;8386984;28;20968;-73
2021/03/11 04:27:01;;;;;;;2.97;2.73;;;10.30;85.90;;;;;;8389110;28;20436;-72
2021/03/11 04:31:02;;;;;;;5.33;3.43;;;10.30;86.00;;;;;;8369004;28;20439;-72
2021/03/11 04:35:06;;;;;;;3.43;3.00;;;10.30;86.10;;;;;;8369341;28;20533;-72
2021/03/11 04:39:07;;;;;;;2.93;2.30;;;10.30;86.00;;;;;;8384883;28;21066;-72
2021/03/11 04:43:09;;;;;;;2.57;2.37;;;10.30;86.10;;;;;;8371033;28;20466;-72
2021/03/11 04:47:15;;;;;;;2.87;2.60;;;10.40;86.20;;;;;;8383642;28;20518;-72
2021/03/11 04:51:23;;;;;;;3.37;3.17;;;10.40;86.50;;;;;;8388420;28;20500;-72
2021/03/11 04:55:24;;;;;;;3.00;2.70;;;10.40;86.50;;;;;;8380033;28;20456;-72
2021/03/11 04:59:30;;;;;;;3.43;3.00;;;10.40;86.20;;;;;;8374641;28;20201;-72
2021/03/11 05:03:31;;;;;;;4.50;3.00;;;10.40;86.20;;;;;;8371073;28;20490;-72
2021/03/11 05:07:32;;;;;;;2.57;2.37;;;10.50;86.10;;;;;;8367664;28;20443;-72
2021/03/11 05:11:32;;;;;;;5.57;3.10;;;10.60;86.10;;;;;;8354552;28;20206;-71
2021/03/11 05:15:37;;;;;;;4.60;3.90;;;10.60;86.20;;;;;;8366582;28;20613;-71
2021/03/11 05:19:41;;;;;;;4.87;3.27;;;10.60;86.20;;;;;;8395637;28;20439;-73
2021/03/11 05:23:42;;;;;;;4.00;3.10;;;10.70;86.40;;;;;;8353883;28;20585;-71
2021/03/11 05:27:42;;;;;;;3.40;3.10;;;10.70;86.30;;;;;;8353109;28;20205;-73
2021/03/11 05:31:43;;;;;;;4.27;3.40;;;10.80;86.30;;;;;;8333910;28;20680;-72
2021/03/11 05:35:44;;;;;;;3.50;3.20;;;10.90;86.00;;;;;;8345689;28;20665;-72
2021/03/11 05:39:49;;;;;;;4.07;3.77;;;11.00;85.80;;;;;;8374700;28;20492;-72
2021/03/11 05:43:55;;;;;;;4.20;3.33;;;11.10;85.50;;;;;;8387432;28;20473;-73
2021/03/11 05:48:02;;;;;;;3.97;3.33;;;11.20;85.30;;;;;;8388810;28;21040;-73
2021/03/11 05:52:09;;;;;;;3.20;2.90;;;11.20;85.30;;;;;;8387639;28;20460;-72
2021/03/11 05:56:11;;;;;;;5.07;3.60;;;11.30;85.10;;;;;;8376014;28;20503;-72
2021/03/11 06:00:18;;;;;;;3.00;2.80;;;11.40;84.90;;;;;;8386606;28;20443;-72
2021/03/11 06:04:19;;;;;;;6.43;3.13;;;11.50;84.80;;;;;;8375254;28;20479;-72
2021/03/11 06:08:22;;;;;;;3.00;2.70;;;11.50;84.40;;;;;;8371502;28;20549;-72
2021/03/11 06:12:24;;;;;;;2.57;2.37;;;11.50;84.50;;;;;;8367373;28;20967;-72
2021/03/11 06:16:30;;;;;;;2.97;2.40;;;11.60;84.40;;;;;;8372701;28;21258;-73
2021/03/11 06:20:33;;;;;;;4.40;2.37;;;11.60;84.60;;;;;;8364768;28;20506;-73
2021/03/11 06:24:34;;;;;;;3.43;1.90;;;11.60;85.10;;;;;;8368322;28;20528;-72
2021/03/11 06:28:45;;;;;;;1.90;1.80;;;11.60;85.30;;;;;;8372671;28;20451;-71
2021/03/11 06:32:56;;;;;;;2.57;2.37;;;11.60;85.30;;;;;;8377061;28;20456;-73
2021/03/11 06:37:16;;;;;;;2.50;2.07;;;11.60;85.30;;;;;;8386112;28;20499;-73
2021/03/11 06:41:23;;;;;;;2.23;2.03;;;11.60;85.30;;;;;;8383901;28;20471;-72
2021/03/11 06:45:29;;;;;;;6.37;4.53;;;11.60;85.30;;;;;;8368452;28;20982;-73
2021/03/11 06:49:30;;;;;;;2.33;2.03;;;11.60;85.30;;;;;;8365901;28;20464;-71
2021/03/11 06:53:56;;;;;;;2.20;2.00;;;11.60;85.20;;;;;;8385722;28;20944;-72
2021/03/11 06:58:20;;;;;;;2.87;1.40;;;11.70;85.10;;;;;;8365197;28;21241;-72
2021/03/11 07:02:29;;;;;;;2.10;2.00;;;11.70;85.00;;;;;;8384199;28;21061;-72
2021/03/11 07:06:35;;;;;;;1.77;1.67;;;11.80;84.90;;;;;;8386210;28;20445;-71
2021/03/11 07:10:36;;;;;;;2.10;2.00;;;11.90;84.60;;;;;;8367331;28;20480;-72
2021/03/11 07:14:37;;;;;;;2.33;2.23;;;12.00;84.30;;;;;;8365362;28;20449;-71
2021/03/11 07:18:38;;;;;;;2.10;1.90;;;12.10;84.30;;;;;;8362154;28;20513;-72
2021/03/11 07:22:40;;;;;;;2.27;2.17;;;12.10;83.80;;;;;;8373716;28;20775;-72
2021/03/11 07:26:58;;;;;;;2.20;2.00;;;12.30;83.70;;;;;;8386521;28;20448;-72
2021/03/11 07:31:09;;;;;;;2.30;2.10;;;12.40;83.50;;;;;;8388083;28;20528;-73
2021/03/11 07:35:20;;;;;;;2.17;1.83;;;12.50;83.40;;;;;;8386005;28;20902;-72
2021/03/11 07:39:45;;;;;;;4.00;2.63;;;12.60;83.40;;;;;;8360984;28;20452;-75
2021/03/11 07:43:46;;;;;;;3.00;2.60;;;12.70;83.30;;;;;;8366367;28;20511;-73
2021/03/11 07:47:53;;;;;;;2.97;2.13;;;12.80;83.20;;;;;;8387406;28;20506;-74
2021/03/11 07:52:01;;;;;;;2.13;2.03;;;12.90;83.30;;;;;;8370247;28;20503;-72
2021/03/11 07:56:04;;;;;;;1.87;1.77;;;12.90;83.10;;;;;;8376068;28;20445;-73
2021/03/11 08:00:08;;;;;;;2.30;2.20;;;13.00;83.10;;;;;;8364781;28;20550;-73
2021/03/11 08:04:12;;;;;;;3.80;3.00;;;13.00;83.20;;;;;;8360231;28;20453;-74
2021/03/11 08:08:30;;;;;;;2.93;2.73;;;13.10;83.10;;;;;;8377704;28;20465;-73
2021/03/11 08:12:38;;;;;;;3.03;2.83;;;13.20;83.20;;;;;;8386212;28;20456;-73
2021/03/11 08:16:44;;;;;;;3.77;3.17;;;13.20;83.30;;;;;;8386210;28;20445;-73
2021/03/11 08:20:45;;;;;;;3.90;3.60;;;13.30;83.00;;;;;;8361084;28;20514;-73
2021/03/11 08:24:47;;;;;;;3.27;2.97;;;13.30;83.10;;;;;;8369273;28;20441;-74
2021/03/11 08:28:54;;;;;;;4.80;3.10;;;13.50;82.80;;;;;;8365189;28;20206;-73
2021/03/11 08:33:00;;;;;;;3.77;3.47;;;13.80;82.20;;;;;;8382867;28;21008;-74
2021/03/11 08:37:20;;;;;;;4.70;3.87;;;14.20;80.60;;;;;;8366195;28;20463;-74
2021/03/11 08:41:33;;;;;;;3.97;2.80;;;14.70;79.70;;;;;;8362314;28;20790;-73
2021/03/11 08:45:38;;;;;;;3.53;3.23;;;16.00;76.20;;;;;;8386228;28;20446;-73
2021/03/11 08:49:41;;;;;;;3.10;2.80;;;17.40;72.30;;;;;;8366147;28;20465;-73
2021/03/11 08:54:01;;;;;;;3.20;2.50;;;18.20;68.70;;;;;;8379835;28;20494;-73
2021/03/11 08:58:25;;;;;;;2.13;2.03;;;18.30;68.30;;;;;;8375889;28;20466;-74
2021/03/11 09:02:32;;;;;;;2.70;2.50;;;18.00;67.90;;;;;;8368265;28;20557;-72
2021/03/11 09:06:53;;;;;;;4.00;2.57;;;17.30;70.00;;;;;;8358917;28;21015;-73
2021/03/11 09:11:21;;;;;;;1.70;1.60;;;16.60;72.20;;;;;;8363600;28;20984;-73
2021/03/11 09:15:23;;;;;;;1.80;1.70;;;16.50;73.40;;;;;;8363903;28;20507;-73
2021/03/11 09:19:24;;;;;;;5.07;1.90;;;17.90;71.10;;;;;;8370397;28;20453;-73
2021/03/11 09:23:41;;;;;;;1.77;1.40;;;19.70;64.10;;;;;;8368570;28;20484;-73
2021/03/11 09:27:56;;;;;;;1.20;1.10;;;20.90;60.40;;;;;;8369581;28;20481;-73
2021/03/11 09:31:57;;;;;;;2.10;1.40;;;21.30;57.50;;;;;;8395169;28;20465;-72
2021/03/11 09:36:07;;;;;;;4.40;2.10;;;21.30;56.40;;;;;;8349973;28;20466;-73
2021/03/11 09:40:09;;;;;;;1.83;1.37;;;20.70;56.90;;;;;;8400672;28;20199;-73
2021/03/11 09:44:10;;;;;;;1.97;1.73;;;20.10;57.90;;;;;;8357821;28;20821;-73
2021/03/11 09:48:26;;;;;;;1.37;1.27;;;19.30;59.20;;;;;;8345620;28;20555;-73
2021/03/11 09:52:27;;;;;;;5.73;2.03;;;18.60;60.30;;;;;;8358455;28;20454;-72
2021/03/11 09:56:38;;;;;;;1.80;1.40;;;18.10;62.20;;;;;;8372466;28;20484;-72
2021/03/11 10:00:44;;;;;;;3.90;1.97;;;18.00;63.10;;;;;;8380828;28;20732;-72
2021/03/11 10:04:46;;;;;;;4.87;1.40;;;18.20;62.20;;;;;;8369743;28;20950;-72
2021/03/11 10:08:51;;;;;;;1.63;1.10;;;18.40;61.30;;;;;;8373207;28;20510;-73
2021/03/11 10:12:53;;;;;;;9.60;1.30;;;18.20;60.20;;;;;;8362140;28;20454;-72
2021/03/11 10:16:59;;;;;;;2.67;0.90;;;17.70;59.00;;;;;;8357563;28;20561;-72
2021/03/11 10:21:09;;;;;;;3.33;1.00;;;17.30;59.70;;;;;;8355559;28;20900;-72
2021/03/11 10:25:16;;;;;;;3.17;1.30;;;17.20;60.20;;;;;;8378311;28;21073;-73
2021/03/11 10:29:19;;;;;;;5.73;1.40;;;17.50;58.40;;;;;;8389696;28;20440;-72
2021/03/11 10:33:22;;;;;;;2.03;1.10;;;17.40;58.40;;;;;;8361326;28;20504;-72
2021/03/11 10:37:32;;;;;;;1.50;1.20;;;17.70;57.90;;;;;;8376077;28;20482;-73
2021/03/11 10:41:34;;;;;;;1.20;1.10;;;17.60;57.70;;;;;;8364866;28;20524;-73
2021/03/11 10:45:40;;;;;;;1.40;1.10;;;18.10;57.50;;;;;;8370862;28;20445;-71
2021/03/11 10:49:42;;;;;;;2.97;1.80;;;18.80;55.60;;;;;;8354390;28;20959;-72
2021/03/11 10:53:48;;;;;;;3.57;2.20;;;19.20;55.70;;;;;;8378230;28;20954;-72
2021/03/11 10:57:51;;;;;;;7.70;1.93;;;19.60;54.80;;;;;;8359039;28;20427;-72
2021/03/11 11:01:53;;;;;;;3.27;1.43;;;19.80;54.30;;;;;;8353686;28;20436;-73
2021/03/11 11:05:54;;;;;;;2.60;1.67;;;19.80;53.90;;;;;;8350237;28;20453;-72
2021/03/11 11:09:55;;;;;;;2.80;1.27;;;19.80;53.90;;;;;;8332157;28;20452;-72
2021/03/11 11:13:56;;;;;;;4.77;2.90;;;19.90;53.70;;;;;;8336287;28;20238;-72
2021/03/11 11:17:59;;;;;;;3.47;1.97;;;19.90;54.60;;;;;;8335209;28;20220;-74
2021/03/11 11:22:05;;;;;;;3.33;1.57;;;19.80;54.10;;;;;;8372980;28;20780;-73
2021/03/11 11:26:11;;;;;;;5.20;2.43;;;19.20;58.20;;;;;;8367749;28;20447;-73
2021/03/11 11:30:13;;;;;;;5.67;1.63;;;18.80;60.80;;;;;;8335491;28;20460;-72
2021/03/11 11:34:16;;;;;;;1.80;1.60;;;18.80;60.40;;;;;;8351756;28;20576;-75
2021/03/11 11:38:20;;;;;;;2.53;1.50;;;19.00;55.90;;;;;;8346702;28;20545;-73
2021/03/11 11:42:21;;;;;;;6.27;2.60;;;19.20;54.60;;;;;;8389617;28;20522;-72
2021/03/11 11:46:23;;;;;;;3.63;1.70;;;19.20;52.40;;;;;;8361334;28;20461;-73
2021/03/11 11:50:30;;;;;;;4.00;1.93;;;18.70;53.50;;;;;;8359447;28;20224;-75
2021/03/11 11:54:34;;;;;;;4.10;2.10;;;18.20;51.50;;;;;;8347195;28;21116;-71
2021/03/11 11:58:44;;;;;;;12.57;2.30;;;17.80;53.70;;;;;;8366103;28;20954;-71
2021/03/11 12:02:45;;;;;;;3.40;2.00;;;17.30;61.10;;;;;;8365505;28;21322;-73
2021/03/11 12:06:48;;;;;;;4.40;1.83;;;17.10;64.30;;;;;;8365769;28;20441;-74
2021/03/11 12:10:50;;;;;;;5.00;1.57;;;17.10;63.80;;;;;;8361041;28;20982;-72
2021/03/11 12:14:56;;;;;;;5.80;2.60;;;17.10;63.40;;;;;;8360679;28;20589;-74
2021/03/11 12:18:58;;;;;;;4.50;2.17;;;17.00;64.60;;;;;;8348757;28;20873;-73
2021/03/11 12:23:06;;;;;;;6.83;3.30;;;17.40;65.10;;;;;;8363313;28;20468;-72
2021/03/11 12:27:08;;;;;;;8.27;2.80;;;17.80;60.90;;;;;;8380940;28;20433;-72
2021/03/11 12:31:09;;;;;;;5.40;2.23;;;17.80;60.60;;;;;;8363558;28;20540;-72
2021/03/11 12:35:11;;;;;;;6.10;1.77;;;18.10;60.30;;;;;;8365352;28;20450;-72
2021/03/11 12:39:15;;;;;;;13.53;2.57;;;18.50;59.70;;;;;;8391078;28;20473;-72
2021/03/11 12:43:19;;;;;;;5.93;1.73;;;18.70;57.50;;;;;;8359802;28;20473;-72
2021/03/11 12:47:26;;;;;;;3.83;1.50;;;18.90;55.90;;;;;;8359239;28;20197;-72
2021/03/11 12:51:27;;;;;;;6.80;2.60;;;19.00;55.80;;;;;;8353230;28;20570;-71
2021/03/11 12:55:27;;;;;;;6.43;1.90;;;19.00;56.00;;;;;;8351758;28;20473;-71
2021/03/11 12:59:28;;;;;;;3.77;2.10;;;18.90;55.10;;;;;;8319512;28;20210;-73
2021/03/11 13:03:29;;;;;;;7.17;2.70;;;18.80;54.90;;;;;;8354078;28;20221;-72
2021/03/11 13:07:30;;;;;;;7.47;2.17;;;18.70;55.30;;;;;;8335169;28;20257;-72
2021/03/11 13:11:32;;;;;;;6.13;2.10;;;18.50;55.70;;;;;;8359408;28;20555;-73
2021/03/11 13:15:34;;;;;;;2.90;1.50;;;18.10;57.10;;;;;;8366007;28;20976;-72
2021/03/11 13:19:35;;;;;;;5.70;2.00;;;17.40;61.60;;;;;;8373914;28;21037;-71
2021/03/11 13:23:44;;;;;;;2.73;1.13;;;16.90;62.90;;;;;;8385733;28;20488;-71
2021/03/11 13:27:45;;;;;;;4.63;1.90;;;16.80;62.90;;;;;;8374084;28;20963;-71
2021/03/11 13:31:46;;;;;;;3.20;1.50;;;16.80;60.70;;;;;;8367937;28;20941;-70
2021/03/11 13:35:48;;;;;;;7.40;2.17;;;16.70;60.20;;;;;;8353971;28;20449;-71
2021/03/11 13:39:50;;;;;;;4.70;1.80;;;16.90;59.30;;;;;;8370015;28;20847;-72
2021/03/11 13:43:56;;;;;;;1.67;1.40;;;17.20;58.40;;;;;;8384553;28;20475;-73
2021/03/11 13:47:58;;;;;;;1.73;1.50;;;17.40;58.30;;;;;;8346734;28;20541;-71
2021/03/11 13:51:58;;;;;;;3.97;1.80;;;17.50;56.10;;;;;;8307872;28;20476;-72
2021/03/11 13:56:00;;;;;;;6.27;1.57;;;17.40;55.20;;;;;;8351099;28;20471;-72
2021/03/11 14:00:09;;;;;;;5.73;1.20;;;17.30;54.30;;;;;;8380175;28;20181;-71
2021/03/11 14:04:20;;;;;;;7.30;2.40;;;17.50;54.20;;;;;;8370134;28;20469;-71
2021/03/11 14:08:20;;;;;;;7.90;2.13;;;17.50;53.60;;;;;;8332851;28;20465;-72
2021/03/11 14:12:29;;;;;;;6.10;1.80;;;17.50;53.40;;;;;;8374190;28;21193;-72
2021/03/11 14:16:33;;;;;;;9.07;2.97;;;17.70;52.40;;;;;;8380916;28;20444;-72
2021/03/11 14:20:34;;;;;;;4.33;1.73;;;17.70;51.00;;;;;;8357356;28;20453;-71
2021/03/11 14:24:35;;;;;;;3.20;2.20;;;17.70;51.60;;;;;;8367032;28;20735;-72
2021/03/11 14:28:36;;;;;;;9.23;1.67;;;17.80;49.60;;;;;;8364742;28;20187;-72
2021/03/11 14:32:37;;;;;;;1.40;1.30;;;17.80;50.00;;;;;;8360938;28;20238;-72
2021/03/11 14:36:38;;;;;;;3.57;1.30;;;17.90;49.50;;;;;;8371704;28;20441;-71
2021/03/11 14:40:41;;;;;;;4.00;1.57;;;17.90;49.90;;;;;;8357411;28;20960;-72
2021/03/11 14:44:43;;;;;;;2.80;1.63;;;17.80;49.30;;;;;;8387872;28;20444;-72
2021/03/11 14:48:44;;;;;;;5.80;2.23;;;17.70;48.80;;;;;;8367135;28;20495;-71
2021/03/11 14:52:46;;;;;;;5.53;1.37;;;17.60;47.60;;;;;;8364582;28;20556;-72
2021/03/11 14:56:46;;;;;;;12.23;1.83;;;17.60;47.90;;;;;;8372496;28;20206;-70
2021/03/11 15:00:50;;;;;;;2.60;1.70;;;17.50;49.20;;;;;;8365527;28;20488;-72
2021/03/11 15:04:51;;;;;;;3.50;2.27;;;17.50;48.40;;;;;;8367477;28;20219;-71
2021/03/11 15:08:52;;;;;;;12.20;1.83;;;17.40;49.00;;;;;;8363441;28;21016;-72
2021/03/11 15:12:52;;;;;;;5.40;2.50;;;17.30;49.50;;;;;;8345511;28;20456;-71
2021/03/11 15:16:55;;;;;;;2.40;1.80;;;17.20;50.60;;;;;;8362232;28;20453;-70
2021/03/11 15:20:56;;;;;;;3.33;1.43;;;17.10;50.30;;;;;;8361015;28;20271;-76
2021/03/11 15:25:03;;;;;;;4.63;2.70;;;17.00;50.30;;;;;;8396687;28;20520;-75
2021/03/11 15:29:06;;;;;;;2.30;1.63;;;16.80;50.10;;;;;;8364177;28;20463;-77
2021/03/11 15:33:07;;;;;;;3.97;1.80;;;16.50;52.50;;;;;;8370052;28;20443;-74
2021/03/11 15:37:12;;;;;;;9.97;2.00;;;16.00;56.70;;;;;;8355478;28;20428;-73
2021/03/11 15:41:13;;;;;;;7.23;2.30;;;15.50;58.00;;;;;;8369357;28;20467;-74
2021/03/11 15:45:13;;;;;;;8.20;2.17;;;15.10;57.30;;;;;;8367368;28;20446;-74
2021/03/11 15:49:19;;;;;;;10.83;2.27;;;15.00;56.90;;;;;;8342731;28;20772;-75
2021/03/11 15:53:28;;;;;;;4.30;1.87;;;15.10;55.20;;;;;;8369550;28;20522;-74
2021/03/11 15:57:29;;;;;;;2.80;1.90;;;15.30;55.70;;;;;;8375061;28;20927;-73
2021/03/11 16:01:34;;;;;;;4.53;2.13;;;15.40;56.00;;;;;;8386960;28;20470;-74
2021/03/11 16:05:40;;;;;;;8.00;1.67;;;15.30;56.80;;;;;;8356498;28;20528;-75
2021/03/11 16:09:47;;;;;;;4.17;2.63;;;15.10;58.00;;;;;;8357598;28;20696;-75
2021/03/11 16:13:49;;;;;;;9.63;1.90;;;14.80;57.90;;;;;;8360718;28;20458;-73
2021/03/11 16:17:50;;;;;;;3.50;1.60;;;14.50;60.90;;;;;;8394433;28;20454;-73
2021/03/11 16:21:55;;;;;;;3.20;1.30;;;13.90;62.40;;;;;;8366450;28;21794;-72
2021/03/11 16:26:01;;;;;;;1.63;1.53;;;13.50;62.80;;;;;;8400670;28;20439;-73
2021/03/11 16:30:03;;;;;;;12.43;2.40;;;13.30;63.60;;;;;;8366744;28;20451;-73
2021/03/11 16:34:13;;;;;;;2.80;1.50;;;13.30;63.80;;;;;;8393219;28;20429;-73
2021/03/11 16:38:18;;;;;;;5.47;2.00;;;13.20;63.90;;;;;;8398449;28;20464;-73
2021/03/11 16:42:22;;;;;;;4.23;1.67;;;12.90;65.20;;;;;;8376692;28;20453;-72
2021/03/11 16:46:23;;;;;;;6.93;1.30;;;12.70;66.00;;;;;;8382951;28;20480;-73
2021/03/11 16:50:30;;;;;;;4.57;1.47;;;12.50;67.90;;;;;;8367472;28;20445;-74
2021/03/11 16:54:33;;;;;;;4.87;1.37;;;12.30;67.80;;;;;;8370365;28;20460;-73
2021/03/11 16:58:33;;;;;;;6.63;1.40;;;12.20;68.40;;;;;;8373303;28;20447;-72
2021/03/11 17:02:43;;;;;;;3.80;1.53;;;12.10;68.90;;;;;;8393201;28;20960;-74
2021/03/11 17:06:47;;;;;;;6.93;1.40;;;12.00;69.20;;;;;;8391016;28;20434;-73
2021/03/11 17:10:54;;;;;;;9.80;1.90;;;12.00;69.90;;;;;;8390714;28;20980;-71
2021/03/11 17:14:56;;;;;;;3.40;1.70;;;12.00;70.30;;;;;;8367524;28;20561;-70
2021/03/11 17:18:57;;;;;;;2.70;1.40;;;12.00;69.40;;;;;;8380321;28;20581;-71
2021/03/11 17:23:19;;;;;;;6.93;1.90;;;12.10;67.80;;;;;;8384682;28;20495;-71
2021/03/11 17:27:20;;;;;;;3.50;1.70;;;12.20;65.50;;;;;;8355749;28;20464;-70
2021/03/11 17:31:24;;;;;;;2.20;1.87;;;12.30;64.20;;;;;;8364219;28;20452;-70
2021/03/11 17:35:25;;;;;;;8.03;2.20;;;12.30;64.10;;;;;;8365013;28;20209;-71
2021/03/11 17:39:26;;;;;;;1.63;1.27;;;12.30;63.80;;;;;;8345096;28;20483;-70
2021/03/11 17:43:28;;;;;;;3.80;1.07;;;12.20;64.10;;;;;;8361893;28;20214;-70
2021/03/11 17:47:28;;;;;;;8.50;1.50;;;12.20;64.80;;;;;;8368422;28;20198;-71
2021/03/11 17:51:29;;;;;;;3.50;1.47;;;12.10;64.60;;;;;;8367756;28;20450;-70
2021/03/11 17:55:31;;;;;;;8.37;1.37;;;12.00;65.30;;;;;;8396737;28;20232;-70
2021/03/11 17:59:35;;;;;;;5.03;1.13;;;11.80;66.00;;;;;;8383812;28;21054;-71
2021/03/11 18:03:36;;;;;;;9.00;3.10;;;11.70;66.70;;;;;;8353984;28;21092;-70
2021/03/11 18:07:42;;;;;;;4.33;1.70;;;11.50;67.40;;;;;;8349188;28;20229;-71
2021/03/11 18:11:45;;;;;;;7.83;1.53;;;11.50;68.10;;;;;;8371704;28;20208;-71
2021/03/11 18:15:52;;;;;;;11.80;2.37;;;11.40;68.70;;;;;;8371018;28;20455;-72
2021/03/11 18:19:53;;;;;;;3.30;1.77;;;11.30;69.20;;;;;;8369870;28;20517;-70
2021/03/11 18:23:56;;;;;;;12.93;2.27;;;11.30;69.80;;;;;;8353197;28;20472;-69
2021/03/11 18:27:59;;;;;;;4.50;1.20;;;11.20;70.50;;;;;;8392054;28;20467;-71
2021/03/11 18:32:02;;;;;;;4.00;1.80;;;11.10;71.20;;;;;;8370578;28;20523;-72
2021/03/11 18:36:03;;;;;;;2.40;1.63;;;11.00;71.50;;;;;;8373588;28;20459;-70
2021/03/11 18:40:07;;;;;;;1.87;1.60;;;11.00;71.90;;;;;;8370963;28;20471;-71
2021/03/11 18:44:09;;;;;;;3.00;2.60;;;11.00;71.90;;;;;;8356643;28;20506;-72
2021/03/11 18:48:10;;;;;;;2.30;1.23;;;10.90;71.90;;;;;;8361603;28;20444;-73
2021/03/11 18:52:16;;;;;;;1.93;1.00;;;10.90;71.70;;;;;;8385357;28;20439;-74
2021/03/11 18:56:18;;;;;;;2.07;1.33;;;10.80;71.70;;;;;;8365289;28;20871;-72
2021/03/11 19:00:28;;;;;;;2.30;1.60;;;10.80;70.80;;;;;;8370243;28;20443;-72
2021/03/11 19:04:34;;;;;;;6.20;1.20;;;10.80;69.70;;;;;;8374839;28;20488;-71
2021/03/11 19:08:36;;;;;;;5.33;1.50;;;10.90;69.20;;;;;;8355452;28;20477;-71
2021/03/11 19:12:41;;;;;;;6.80;1.60;;;10.90;68.60;;;;;;8354647;28;20459;-70
2021/03/11 19:16:42;;;;;;;1.90;1.70;;;10.90;68.50;;;;;;8359535;28;20456;-71
2021/03/11 19:20:43;;;;;;;6.63;1.60;;;10.90;68.80;;;;;;8368815;28;20451;-70
2021/03/11 19:24:49;;;;;;;6.20;1.17;;;10.90;69.10;;;;;;8375756;28;20192;-70
2021/03/11 19:28:51;;;;;;;5.17;2.30;;;10.90;68.90;;;;;;8368134;28;20453;-71
2021/03/11 19:32:55;;;;;;;1.97;1.10;;;11.00;69.00;;;;;;8371506;28;20443;-72
2021/03/11 19:36:57;;;;;;;2.50;1.30;;;11.00;68.80;;;;;;8386409;28;20458;-71
2021/03/11 19:40:58;;;;;;;2.23;2.03;;;11.10;68.80;;;;;;8366364;28;20472;-72
2021/03/11 19:44:58;;;;;;;12.27;2.47;;;11.10;68.90;;;;;;8361718;28;21009;-73
2021/03/11 19:48:59;;;;;;;3.37;1.10;;;11.10;68.70;;;;;;8353435;28;21126;-70
2021/03/11 19:53:03;;;;;;;4.23;1.10;;;11.10;68.50;;;;;;8378223;28;20594;-71
2021/03/11 19:57:09;;;;;;;6.17;3.27;;;11.10;68.70;;;;;;8377669;28;20302;-70
2021/03/11 20:01:11;;;;;;;14.57;1.80;;;11.00;68.70;;;;;;8363152;28;20482;-72
2021/03/11 20:05:14;;;;;;;3.73;1.73;;;10.90;68.50;;;;;;8365101;28;20446;-71
2021/03/11 20:09:16;;;;;;;7.07;1.93;;;10.80;68.70;;;;;;8381748;28;20459;-71
2021/03/11 20:13:16;;;;;;;4.50;1.47;;;10.80;68.50;;;;;;8376747;28;20463;-70
2021/03/11 20:17:17;;;;;;;2.53;2.20;;;10.70;68.30;;;;;;8376371;28;20447;-70
2021/03/11 20:21:27;;;;;;;3.77;1.03;;;10.70;68.50;;;;;;8370042;28;20208;-71
2021/03/11 20:25:29;;;;;;;8.83;2.53;;;10.80;68.00;;;;;;8346217;28;20463;-71
2021/03/11 20:29:30;;;;;;;4.50;2.63;;;10.70;68.30;;;;;;8359176;28;20451;-70
2021/03/11 20:33:37;;;;;;;6.00;2.00;;;10.70;68.50;;;;;;8384665;28;20454;-70
2021/03/11 20:37:46;;;;;;;3.87;1.30;;;10.60;68.80;;;;;;8376559;28;20878;-71
2021/03/11 20:41:47;;;;;;;8.73;1.13;;;10.50;69.30;;;;;;8366184;28;20466;-70
2021/03/11 20:45:54;;;;;;;10.50;1.93;;;10.50;69.80;;;;;;8371036;28;20447;-74
2021/03/11 20:49:56;;;;;;;2.30;2.10;;;10.40;69.80;;;;;;8362362;28;20486;-71
2021/03/11 20:54:01;;;;;;;3.93;1.63;;;10.40;69.70;;;;;;8384100;28;20450;-72
2021/03/11 20:58:02;;;;;;;3.73;1.70;;;10.30;69.20;;;;;;8382928;28;20459;-71
2021/03/11 21:02:05;;;;;;;9.63;2.80;;;10.30;69.70;;;;;;8354184;28;20512;-70
2021/03/11 21:06:10;;;;;;;3.53;1.70;;;10.30;70.20;;;;;;8356667;28;20450;-72
2021/03/11 21:10:16;;;;;;;5.70;1.60;;;10.20;69.70;;;;;;8369721;28;20545;-71